Atbasar, Kazakhstan
Current Conditions -  °F | °C
As of 5:30 PM on Monday 24 Nov 2014 (Local Time) from UACK Reporting Station
Clear Clear  
Wind Chill: -35°   Ceiling: Unl
Heat Index: -25°   Visibility: 6mi
Dew Point: -28°   Wind: 9mph
Humidity: 77%   Direction: 270°W
Pressure: 30.39"   Gusts: NA
Location:  51.82°N, 68.35°E
Report Text: UACK 241130Z 27004MPS CAVOK M25/M28 Q1029 R02/010060 NOSIG RMKQFE747/0996
Loading
Personal Weather Stations






























Interactive Weather Map New forecast layout! Learn more

10-Day Weather Forecast

Advertisements
Track Severe Weather on mobile